createdAt,value
2022-09-27T00:00:31.064Z,10.79
2022-09-27T00:03:00.779Z,10.77
2022-09-27T00:05:30.288Z,10.82
2022-09-27T00:08:00.008Z,10.80
2022-09-27T00:10:29.767Z,10.76
2022-09-27T00:12:59.369Z,10.85
2022-09-27T00:15:31.672Z,10.79
2022-09-27T00:18:01.229Z,10.76
2022-09-27T00:20:31.011Z,10.84
2022-09-27T00:23:00.503Z,10.87
2022-09-27T00:25:30.442Z,10.84
2022-09-27T00:28:00.130Z,10.84
2022-09-27T00:30:32.299Z,10.80
2022-09-27T00:33:02.000Z,10.72
2022-09-27T00:35:31.502Z,10.71
2022-09-27T00:38:01.506Z,10.72
2022-09-27T00:40:31.597Z,10.70
2022-09-27T00:43:01.370Z,10.74
2022-09-27T00:45:33.528Z,10.69
2022-09-27T00:48:09.181Z,10.76
2022-09-27T00:50:42.221Z,10.69
2022-09-27T00:53:17.411Z,10.71
2022-09-27T00:55:52.133Z,10.73
2022-09-27T00:58:24.687Z,10.76
2022-09-27T01:01:00.875Z,10.75
2022-09-27T01:03:37.109Z,10.74
2022-09-27T01:06:09.376Z,10.75
2022-09-27T01:21:47.234Z,10.72
2022-09-27T01:24:48.656Z,10.80
2022-09-27T01:27:52.918Z,10.76
2022-09-27T01:30:28.113Z,10.76
2022-09-27T01:33:09.263Z,10.82
2022-09-27T01:35:49.497Z,10.86
2022-09-27T01:38:25.801Z,10.88
2022-09-27T01:41:04.109Z,10.88
2022-09-27T01:43:37.645Z,10.88
2022-09-27T01:46:14.625Z,10.88
2022-09-27T01:48:48.470Z,10.87
2022-09-27T01:51:21.471Z,10.90
2022-09-27T01:53:55.016Z,10.91
2022-09-27T01:56:30.072Z,10.88
2022-09-27T01:59:03.535Z,10.90
2022-09-27T02:01:38.637Z,10.84
2022-09-27T02:04:12.603Z,10.88
2022-09-27T02:06:45.049Z,10.90
2022-09-27T02:09:19.012Z,10.86
2022-09-27T02:11:56.047Z,10.89
2022-09-27T02:14:31.177Z,10.87
2022-09-27T02:17:11.653Z,10.91
2022-09-27T02:19:50.525Z,10.91
2022-09-27T02:22:28.629Z,10.90
2022-09-27T02:25:03.875Z,10.90
2022-09-27T02:27:38.919Z,10.94
2022-09-27T02:30:12.749Z,10.91
2022-09-27T02:32:45.273Z,11.00
2022-09-27T02:35:20.088Z,11.02
2022-09-27T02:37:50.445Z,11.00
2022-09-27T02:40:20.503Z,11.07
2022-09-27T02:42:50.789Z,11.19
2022-09-27T02:45:22.489Z,11.34
2022-09-27T02:48:14.633Z,11.32
2022-09-27T02:51:10.041Z,11.36
2022-09-27T02:53:50.658Z,11.36
2022-09-27T02:56:28.838Z,11.35
2022-09-27T02:59:10.336Z,11.33
2022-09-27T03:01:44.050Z,11.40
2022-09-27T03:04:23.219Z,11.37
2022-09-27T03:06:54.987Z,11.35
2022-09-27T03:09:26.883Z,11.30
2022-09-27T03:11:56.283Z,11.32
2022-09-27T03:14:26.005Z,11.32
2022-09-27T03:16:55.497Z,11.23
2022-09-27T03:19:27.801Z,11.12
2022-09-27T03:21:57.201Z,11.02
2022-09-27T03:24:26.606Z,10.97
2022-09-27T03:26:56.006Z,10.93
2022-09-27T03:29:25.473Z,10.89
2022-09-27T03:31:54.936Z,10.96
2022-09-27T03:34:27.174Z,10.95
2022-09-27T03:36:56.644Z,10.86
2022-09-27T03:39:26.146Z,10.90
2022-09-27T03:41:55.871Z,10.88
2022-09-27T03:44:25.370Z,10.86
2022-09-27T03:46:54.979Z,10.78
2022-09-27T03:49:27.181Z,10.84
2022-09-27T03:51:56.546Z,10.88
2022-09-27T03:54:25.989Z,10.84
2022-09-27T03:56:55.528Z,10.89
2022-09-27T03:59:25.270Z,10.89
2022-09-27T04:01:54.863Z,10.84
2022-09-27T04:04:26.856Z,10.86
2022-09-27T04:06:57.294Z,10.88
2022-09-27T04:09:26.793Z,10.85
2022-09-27T04:11:56.266Z,10.95
2022-09-27T04:14:25.783Z,10.96
2022-09-27T04:16:55.683Z,10.94
2022-09-27T04:19:27.801Z,10.91
2022-09-27T04:21:57.163Z,10.94
2022-09-27T04:24:27.370Z,10.93
2022-09-27T04:26:57.024Z,10.92
2022-09-27T04:29:26.564Z,10.90
2022-09-27T04:31:56.086Z,10.94
2022-09-27T04:34:45.307Z,10.96
2022-09-27T04:37:15.610Z,10.98
2022-09-27T04:39:45.028Z,11.02
2022-09-27T04:42:14.451Z,11.01
2022-09-27T04:44:43.886Z,10.99
2022-09-27T04:47:13.514Z,11.05
2022-09-27T04:49:45.612Z,11.04
2022-09-27T04:52:15.571Z,11.02
2022-09-27T04:54:45.209Z,11.11
2022-09-27T04:57:15.033Z,11.13
2022-09-27T04:59:44.420Z,11.11
2022-09-27T05:02:13.932Z,11.15
2022-09-27T05:04:46.000Z,11.10
2022-09-27T05:07:15.441Z,11.13
2022-09-27T05:09:45.568Z,10.99
2022-09-27T05:12:15.140Z,10.92
2022-09-27T05:14:44.704Z,10.87
2022-09-27T05:17:14.153Z,10.79
2022-09-27T05:19:46.181Z,10.79
2022-09-27T05:22:15.612Z,10.87
2022-09-27T05:24:45.097Z,10.78
2022-09-27T05:27:18.593Z,10.77
2022-09-27T05:29:48.159Z,10.74
2022-09-27T05:32:18.365Z,10.73
2022-09-27T05:34:50.524Z,10.76
2022-09-27T05:37:19.892Z,10.73
2022-09-27T05:39:50.095Z,10.67
2022-09-27T05:42:19.763Z,10.64
2022-09-27T05:44:49.249Z,10.62
2022-09-27T05:47:18.743Z,10.62
2022-09-27T05:49:52.501Z,10.60
2022-09-27T05:52:23.354Z,10.58
2022-09-27T05:54:52.877Z,10.57
2022-09-27T05:57:22.259Z,10.55
2022-09-27T05:59:51.731Z,10.57
2022-09-27T06:02:21.187Z,10.74
2022-09-27T06:04:53.321Z,10.65
2022-09-27T06:07:22.749Z,10.67
2022-09-27T06:09:52.272Z,10.73
2022-09-27T06:12:21.716Z,10.63
2022-09-27T06:14:51.178Z,10.63
2022-09-27T06:17:21.921Z,10.62
2022-09-27T06:19:53.891Z,10.59
2022-09-27T06:22:23.283Z,10.60
2022-09-27T06:24:52.661Z,10.69
2022-09-27T06:27:22.132Z,10.60
2022-09-27T06:29:51.575Z,10.61
2022-09-27T06:32:20.965Z,10.67
2022-09-27T06:34:50.750Z,10.65
2022-09-27T06:37:22.730Z,10.59
2022-09-27T06:39:53.274Z,10.54
2022-09-27T06:42:22.979Z,10.75
2022-09-27T06:44:53.193Z,10.55
2022-09-27T06:47:23.837Z,10.51
2022-09-27T06:49:53.260Z,10.44
2022-09-27T06:52:25.294Z,10.36
2022-09-27T06:54:54.767Z,10.42
2022-09-27T06:57:36.469Z,10.37
2022-09-27T07:00:19.026Z,10.37
2022-09-27T07:02:49.080Z,10.37
2022-09-27T07:05:18.515Z,10.34
2022-09-27T07:07:53.731Z,10.34
2022-09-27T07:10:23.396Z,10.30
2022-09-27T07:12:53.096Z,10.29
2022-09-27T07:15:23.925Z,10.36
2022-09-27T07:18:01.450Z,10.31
2022-09-27T07:20:31.871Z,10.33
2022-09-27T07:23:04.804Z,10.30
2022-09-27T07:25:35.219Z,10.33
2022-09-27T07:28:06.003Z,10.39
2022-09-27T07:30:36.398Z,10.39
2022-09-27T07:33:09.137Z,10.38
2022-09-27T07:35:41.698Z,10.36
2022-09-27T07:38:15.381Z,10.35
2022-09-27T07:40:45.301Z,10.32
2022-09-27T07:43:15.017Z,10.33
2022-09-27T07:45:44.552Z,10.30
2022-09-27T07:48:17.058Z,10.33
2022-09-27T07:50:47.737Z,10.30
2022-09-27T07:53:19.705Z,10.30
2022-09-27T07:55:53.890Z,10.29
2022-09-27T07:58:23.746Z,10.23
2022-09-27T08:00:54.663Z,10.22
2022-09-27T08:03:24.179Z,10.20
2022-09-27T08:05:53.667Z,10.26
2022-09-27T08:08:25.771Z,10.26
2022-09-27T08:10:55.848Z,10.28
2022-09-27T08:13:25.332Z,10.32
2022-09-27T08:15:55.057Z,10.36
2022-09-27T08:18:27.807Z,10.37
2022-09-27T08:20:59.428Z,10.40
2022-09-27T08:23:32.060Z,10.41
2022-09-27T08:26:11.076Z,10.43
2022-09-27T08:28:40.666Z,10.52
2022-09-27T08:31:10.157Z,10.56
2022-09-27T08:33:41.644Z,10.55
2022-09-27T08:36:14.087Z,10.54
2022-09-27T08:38:46.258Z,10.54
2022-09-27T08:41:27.258Z,10.46
2022-09-27T08:44:09.315Z,10.46
2022-09-27T08:46:51.688Z,10.52
2022-09-27T08:49:27.006Z,10.54
2022-09-27T08:51:57.855Z,10.63
2022-09-27T08:54:33.843Z,10.59
2022-09-27T08:57:07.585Z,10.57
2022-09-27T08:59:42.447Z,10.59
2022-09-27T09:02:20.453Z,10.65
2022-09-27T09:04:54.034Z,10.71
2022-09-27T09:07:38.990Z,10.78
2022-09-27T09:10:42.617Z,10.78
2022-09-27T09:13:19.060Z,10.68
2022-09-27T09:15:59.683Z,10.45
2022-09-27T09:18:43.191Z,10.40
2022-09-27T09:21:25.559Z,10.32
2022-09-27T09:24:35.771Z,10.34
2022-09-27T09:27:16.265Z,10.36
2022-09-27T09:30:07.828Z,10.43
2022-09-27T09:32:45.693Z,10.45
2022-09-27T09:35:19.104Z,10.42
2022-09-27T09:37:52.592Z,10.45
2022-09-27T09:40:26.321Z,10.35
2022-09-27T09:43:03.745Z,10.39
2022-09-27T09:45:36.565Z,10.38
2022-09-27T09:48:10.014Z,10.49
2022-09-27T09:50:46.924Z,10.46
2022-09-27T09:53:22.414Z,10.60
2022-09-27T09:55:57.931Z,10.83
2022-09-27T09:58:37.264Z,11.11
2022-09-27T10:01:20.248Z,11.56
2022-09-27T10:03:49.837Z,12.08
2022-09-27T10:06:21.009Z,12.34
2022-09-27T10:08:54.716Z,12.12
2022-09-27T10:11:27.100Z,12.00
2022-09-27T10:13:59.135Z,11.79
2022-09-27T10:16:29.395Z,11.63
2022-09-27T10:19:05.596Z,11.57
2022-09-27T10:21:37.333Z,11.37
2022-09-27T10:24:18.066Z,11.35
2022-09-27T10:26:51.714Z,11.32
2022-09-27T10:29:37.265Z,11.57
2022-09-27T10:32:08.664Z,11.64
2022-09-27T10:34:41.281Z,11.59
2022-09-27T10:37:22.198Z,11.67
2022-09-27T10:39:53.797Z,11.55
2022-09-27T10:42:25.054Z,11.58
2022-09-27T10:44:57.101Z,12.22
2022-09-27T10:47:30.012Z,13.89
2022-09-27T10:50:08.098Z,14.73
2022-09-27T10:52:38.068Z,15.44
2022-09-27T10:55:19.222Z,14.83
2022-09-27T10:57:52.196Z,14.81
2022-09-27T11:00:28.770Z,15.22
2022-09-27T11:03:00.396Z,16.46
2022-09-27T11:05:38.204Z,15.47
2022-09-27T11:08:27.329Z,14.84
2022-09-27T11:11:06.660Z,14.07
2022-09-27T11:13:36.717Z,14.12
2022-09-27T11:16:29.757Z,15.41
2022-09-27T11:19:15.155Z,15.83
2022-09-27T11:21:54.036Z,16.04
2022-09-27T11:24:39.625Z,16.55
2022-09-27T11:27:21.750Z,16.25
2022-09-27T11:30:04.983Z,16.22
2022-09-27T11:32:50.052Z,15.88
2022-09-27T11:35:34.591Z,15.88
2022-09-27T11:38:40.730Z,15.62
2022-09-27T11:41:26.886Z,15.54
2022-09-27T11:44:19.890Z,15.42
2022-09-27T11:46:55.991Z,14.61
2022-09-27T11:49:52.563Z,13.66
2022-09-27T11:52:34.380Z,13.47
2022-09-27T11:55:34.128Z,13.33
2022-09-27T11:58:08.896Z,13.14
2022-09-27T12:00:55.412Z,12.98
2022-09-27T12:03:52.513Z,12.83
2022-09-27T12:06:28.349Z,12.44
2022-09-27T12:09:06.089Z,12.36
2022-09-27T12:11:42.983Z,12.09
2022-09-27T12:14:24.615Z,12.18
2022-09-27T12:16:58.806Z,12.60
2022-09-27T12:19:31.709Z,13.01
2022-09-27T12:22:06.353Z,13.07
2022-09-27T12:24:36.881Z,12.69
2022-09-27T12:27:13.718Z,12.49
2022-09-27T12:29:45.383Z,12.17
2022-09-27T12:32:20.205Z,12.05
2022-09-27T12:34:56.438Z,11.94
2022-09-27T12:37:31.650Z,11.70
2022-09-27T12:40:06.486Z,11.57
2022-09-27T12:45:41.759Z,11.29
2022-09-27T12:48:21.277Z,11.41
2022-09-27T12:50:55.931Z,11.57
2022-09-27T12:53:33.100Z,12.16
2022-09-27T12:56:12.457Z,12.78
2022-09-27T12:59:17.884Z,13.61
2022-09-27T13:02:02.232Z,14.70
2022-09-27T13:04:49.359Z,14.03
2022-09-27T13:07:33.081Z,13.50
2022-09-27T13:10:27.945Z,14.06
2022-09-27T13:12:58.734Z,15.08
2022-09-27T13:15:34.278Z,15.41
2022-09-27T13:18:05.568Z,16.26
2022-09-27T13:20:52.789Z,16.41
2022-09-27T13:24:02.306Z,15.58
2022-09-27T13:26:53.277Z,15.36
2022-09-27T13:29:38.625Z,14.46
2022-09-27T13:32:18.879Z,13.85
2022-09-27T13:34:50.665Z,13.39
2022-09-27T13:37:40.880Z,13.07
2022-09-27T13:40:24.323Z,12.62
2022-09-27T13:43:13.451Z,12.29
2022-09-27T13:45:52.181Z,11.99
2022-09-27T13:48:28.027Z,11.79
2022-09-27T13:51:04.128Z,11.60
2022-09-27T13:53:37.950Z,11.62
2022-09-27T13:56:08.457Z,11.82
2022-09-27T13:58:53.080Z,12.19
2022-09-27T14:01:32.253Z,11.95
2022-09-27T14:04:06.134Z,12.27
2022-09-27T14:06:38.400Z,12.45
2022-09-27T14:09:10.270Z,12.61
2022-09-27T14:11:42.270Z,12.79
2022-09-27T14:14:20.290Z,13.22
2022-09-27T14:16:49.820Z,13.83
2022-09-27T14:19:22.416Z,14.22
2022-09-27T14:21:52.472Z,14.18
2022-09-27T14:24:29.162Z,13.96
2022-09-27T14:27:23.507Z,13.60
2022-09-27T14:29:58.536Z,13.09
2022-09-27T14:32:31.665Z,13.24
2022-09-27T14:35:31.519Z,13.17
2022-09-27T14:38:02.472Z,13.02
2022-09-27T14:40:43.560Z,12.99
2022-09-27T14:43:19.797Z,12.94
2022-09-27T14:45:54.046Z,12.82
2022-09-27T14:48:26.137Z,12.82
2022-09-27T14:51:04.752Z,13.00
2022-09-27T14:53:37.610Z,12.84
2022-09-27T14:56:11.273Z,12.71
2022-09-27T14:58:47.705Z,12.48
2022-09-27T15:01:23.841Z,12.39
2022-09-27T15:03:54.160Z,12.41
2022-09-27T15:06:25.064Z,12.34
2022-09-27T15:08:55.163Z,11.95
2022-09-27T15:11:25.015Z,11.57
2022-09-27T15:13:56.015Z,11.44
2022-09-27T15:16:28.172Z,11.24
2022-09-27T15:19:05.742Z,10.97
2022-09-27T15:21:36.905Z,10.82
2022-09-27T15:24:07.353Z,10.89
2022-09-27T15:26:40.354Z,10.66
2022-09-27T15:29:19.637Z,10.65
2022-09-27T15:32:01.707Z,10.60
2022-09-27T15:34:32.950Z,10.56
2022-09-27T15:37:05.168Z,10.61
2022-09-27T15:39:36.860Z,10.50
2022-09-27T15:42:12.742Z,10.55
2022-09-27T15:44:47.838Z,10.55
2022-09-27T15:47:50.155Z,10.57
2022-09-27T15:50:39.257Z,10.60
2022-09-27T15:53:09.367Z,10.64
2022-09-27T15:55:43.484Z,10.59
2022-09-27T15:58:18.310Z,10.66
2022-09-27T16:00:55.169Z,10.63
2022-09-27T16:03:29.245Z,10.64
2022-09-27T16:05:59.421Z,10.68
2022-09-27T16:08:29.694Z,10.63
2022-09-27T16:11:03.423Z,10.67
2022-09-27T16:13:33.399Z,10.67
2022-09-27T16:16:04.480Z,10.70
2022-09-27T16:18:36.529Z,10.63
2022-09-27T16:21:06.068Z,10.73
2022-09-27T16:23:35.524Z,10.70
2022-09-27T16:26:05.318Z,10.62
2022-09-27T16:28:34.855Z,10.41
2022-09-27T16:31:06.633Z,10.50
2022-09-27T16:33:38.749Z,10.47
2022-09-27T16:36:16.187Z,10.39
2022-09-27T16:38:45.964Z,10.21
2022-09-27T16:41:15.390Z,10.24
2022-09-27T16:43:45.340Z,10.05
2022-09-27T16:46:18.797Z,9.94
2022-09-27T16:48:51.245Z,9.84
2022-09-27T16:51:35.601Z,9.75
2022-09-27T16:54:05.883Z,9.64
2022-09-27T16:56:35.929Z,9.56
2022-09-27T16:59:07.078Z,9.59
2022-09-27T17:01:37.205Z,9.46
2022-09-27T17:04:10.136Z,9.46
2022-09-27T17:06:39.653Z,9.42
2022-09-27T17:09:09.202Z,9.37
2022-09-27T17:11:38.832Z,9.42
2022-09-27T17:14:08.321Z,9.41
2022-09-27T17:16:37.744Z,9.32
2022-09-27T17:19:09.887Z,9.32
2022-09-27T17:21:39.451Z,9.34
2022-09-27T17:24:09.486Z,9.30
2022-09-27T17:26:39.165Z,9.27
2022-09-27T17:29:09.424Z,9.25
2022-09-27T17:31:40.980Z,9.28
2022-09-27T17:34:15.794Z,9.24
2022-09-27T17:36:48.472Z,9.17
2022-09-27T17:39:21.219Z,9.20
2022-09-27T17:41:51.422Z,9.24
2022-09-27T17:44:23.658Z,9.32
2022-09-27T17:47:14.108Z,9.32
2022-09-27T17:49:58.593Z,9.34
2022-09-27T17:52:28.758Z,9.37
2022-09-27T17:54:58.672Z,9.37
2022-09-27T17:57:28.309Z,9.31
2022-09-27T17:59:58.053Z,9.31
2022-09-27T18:02:27.767Z,9.38
2022-09-27T18:04:59.886Z,9.37
2022-09-27T18:07:30.067Z,9.40
2022-09-27T18:09:59.450Z,9.36
2022-09-27T18:12:32.103Z,9.43
2022-09-27T18:15:01.466Z,9.41
2022-09-27T18:17:30.960Z,9.40
2022-09-27T18:20:03.355Z,9.42
2022-09-27T18:22:33.017Z,9.44
2022-09-27T18:25:03.558Z,9.45
2022-09-27T18:27:34.787Z,9.49
2022-09-27T18:30:04.492Z,9.48
2022-09-27T18:32:34.075Z,9.54
2022-09-27T18:35:07.040Z,9.55
2022-09-27T18:37:36.713Z,9.53
2022-09-27T18:40:06.837Z,9.49
2022-09-27T18:42:36.425Z,9.51
2022-09-27T18:45:06.577Z,9.49
2022-09-27T18:47:36.400Z,9.51
2022-09-27T18:50:09.400Z,9.54
2022-09-27T18:52:39.093Z,9.51
2022-09-27T18:55:09.709Z,9.45
2022-09-27T18:57:39.373Z,9.48
2022-09-27T19:00:11.163Z,9.52
2022-09-27T19:02:41.086Z,9.53
2022-09-27T19:05:13.723Z,9.59
2022-09-27T19:07:43.524Z,9.57
2022-09-27T19:10:13.191Z,9.66
2022-09-27T19:12:43.336Z,9.64
2022-09-27T19:15:14.423Z,9.60
2022-09-27T19:17:44.036Z,9.56
2022-09-27T19:20:16.522Z,9.62
2022-09-27T19:22:46.044Z,9.60
2022-09-27T19:25:15.698Z,9.63
2022-09-27T19:27:45.481Z,9.65
2022-09-27T19:30:16.688Z,9.67
2022-09-27T19:32:48.034Z,9.67
2022-09-27T19:35:20.244Z,9.67
2022-09-27T19:37:49.885Z,9.64
2022-09-27T19:40:20.240Z,9.58
2022-09-27T19:42:54.124Z,9.63
2022-09-27T19:45:24.473Z,9.58
2022-09-27T19:47:55.789Z,9.68
2022-09-27T19:50:28.342Z,9.66
2022-09-27T19:52:57.821Z,9.68
2022-09-27T19:55:27.380Z,9.68
2022-09-27T19:57:59.221Z,9.70
2022-09-27T20:00:28.992Z,9.66
2022-09-27T20:02:58.766Z,9.65
2022-09-27T20:05:31.298Z,9.79
2022-09-27T20:08:01.164Z,9.84
2022-09-27T20:10:31.170Z,9.75
2022-09-27T20:13:00.718Z,9.71
2022-09-27T20:15:33.159Z,9.77
2022-09-27T20:18:09.073Z,9.80
2022-09-27T20:20:42.289Z,9.85
2022-09-27T20:23:11.780Z,9.84
2022-09-27T20:25:43.204Z,9.82
2022-09-27T20:28:12.942Z,9.80
2022-09-27T20:30:42.383Z,9.85
2022-09-27T20:33:24.331Z,9.85
2022-09-27T20:35:57.054Z,9.84
2022-09-27T20:38:26.509Z,9.88
2022-09-27T20:40:57.942Z,9.82
2022-09-27T20:43:27.617Z,9.79
2022-09-27T20:46:03.418Z,9.89
2022-09-27T20:48:33.229Z,9.88
2022-09-27T20:51:05.278Z,9.93
2022-09-27T20:53:35.615Z,9.87
2022-09-27T20:56:05.490Z,9.88
2022-09-27T20:58:35.253Z,9.92
2022-09-27T21:01:13.632Z,9.96
2022-09-27T21:03:43.196Z,9.85
2022-09-27T21:06:16.270Z,9.87
2022-09-27T21:08:45.713Z,9.92
2022-09-27T21:11:16.839Z,9.97
2022-09-27T21:13:48.209Z,9.99
2022-09-27T21:16:19.654Z,10.05
2022-09-27T21:18:51.475Z,9.84
2022-09-27T21:21:25.362Z,9.92
2022-09-27T21:23:57.961Z,9.92
2022-09-27T21:26:28.736Z,9.91
2022-09-27T21:28:59.871Z,9.87
2022-09-27T21:31:31.851Z,9.94
2022-09-27T21:34:03.626Z,9.85
2022-09-27T21:36:37.762Z,9.84
2022-09-27T21:39:10.315Z,9.93
2022-09-27T21:41:40.010Z,9.88
2022-09-27T21:44:10.179Z,9.94
2022-09-27T21:46:43.507Z,9.98
2022-09-27T21:49:13.744Z,9.98
2022-09-27T21:51:45.877Z,9.95
2022-09-27T21:54:17.256Z,10.02
2022-09-27T21:56:47.095Z,10.03
2022-09-27T21:59:18.639Z,9.91
2022-09-27T22:01:49.449Z,9.89
2022-09-27T22:04:18.871Z,9.92
2022-09-27T22:06:51.903Z,9.96
2022-09-27T22:09:22.343Z,9.90
2022-09-27T22:11:51.736Z,9.89
2022-09-27T22:14:21.539Z,9.91
2022-09-27T22:16:51.521Z,9.89
2022-09-27T22:19:20.972Z,9.89
2022-09-27T22:21:52.944Z,9.83
2022-09-27T22:24:22.921Z,9.81
2022-09-27T22:26:54.321Z,9.82
2022-09-27T22:29:25.098Z,9.84
2022-09-27T22:31:54.586Z,9.80
2022-09-27T22:34:29.045Z,9.89
2022-09-27T22:37:02.261Z,9.79
2022-09-27T22:39:31.756Z,9.81
2022-09-27T22:42:01.174Z,9.90
2022-09-27T22:44:31.568Z,9.82
2022-09-27T22:47:01.053Z,9.76
2022-09-27T22:49:30.584Z,9.78
2022-09-27T22:52:02.799Z,9.84
2022-09-27T22:54:32.177Z,9.81
2022-09-27T22:57:01.621Z,9.70
2022-09-27T22:59:31.127Z,9.74
2022-09-27T23:02:00.586Z,9.77
2022-09-27T23:04:30.066Z,9.75
2022-09-27T23:07:02.377Z,9.77
2022-09-27T23:09:31.996Z,9.68
2022-09-27T23:12:01.470Z,9.76
2022-09-27T23:14:32.521Z,9.77
2022-09-27T23:17:01.933Z,9.71
2022-09-27T23:19:33.846Z,9.72
2022-09-27T23:22:06.388Z,9.67
2022-09-27T23:24:35.833Z,9.62
2022-09-27T23:27:17.781Z,9.56
2022-09-27T23:29:47.398Z,9.55
2022-09-27T23:32:16.943Z,9.60
2022-09-27T23:34:46.482Z,9.49
2022-09-27T23:37:18.535Z,9.56
2022-09-27T23:39:48.292Z,9.46
2022-09-27T23:42:17.843Z,9.45
2022-09-27T23:44:47.300Z,9.49
2022-09-27T23:47:16.746Z,9.62
2022-09-27T23:49:46.196Z,9.51
2022-09-27T23:52:18.445Z,9.63
2022-09-27T23:54:48.054Z,9.66
2022-09-27T23:57:17.443Z,9.58
2022-09-27T23:59:46.933Z,9.54
